createdAt,value
2018-08-21T05:50:03.043Z,994.51
2018-08-21T05:51:03.045Z,994.51
2018-08-21T05:52:03.061Z,994.5
2018-08-21T05:53:03.059Z,994.49
2018-08-21T05:54:03.063Z,994.5
2018-08-21T05:55:03.059Z,994.52
2018-08-21T05:56:03.071Z,994.52
2018-08-21T05:57:03.063Z,994.55
2018-08-21T05:58:03.067Z,994.56
2018-08-21T05:59:03.072Z,994.59
2018-08-21T06:00:04.673Z,994.63
2018-08-21T06:01:03.076Z,994.57
2018-08-21T06:02:03.078Z,994.6
2018-08-21T06:03:03.078Z,994.61
2018-08-21T06:04:03.084Z,994.62
2018-08-21T06:05:03.086Z,994.59
2018-08-21T06:06:03.090Z,994.59
2018-08-21T06:07:03.091Z,994.55
2018-08-21T06:08:03.175Z,994.56
2018-08-21T06:09:03.109Z,994.57
2018-08-21T06:10:03.107Z,994.56
2018-08-21T06:11:03.110Z,994.59
2018-08-21T06:12:03.114Z,994.58
2018-08-21T06:13:03.116Z,994.56
2018-08-21T06:14:03.171Z,994.59
2018-08-21T06:15:03.125Z,994.57
2018-08-21T06:16:03.131Z,994.53
2018-08-21T06:17:03.134Z,994.56
2018-08-21T06:18:03.142Z,994.54
2018-08-21T06:19:03.199Z,994.55
2018-08-21T06:20:03.148Z,994.55
2018-08-21T06:21:03.153Z,994.58
2018-08-21T06:22:03.158Z,994.57
2018-08-21T06:23:03.162Z,994.58
2018-08-21T06:24:03.166Z,994.63
2018-08-21T06:25:03.172Z,994.61
2018-08-21T06:26:03.176Z,994.58
2018-08-21T06:27:03.187Z,994.57
2018-08-21T06:28:03.198Z,994.56
2018-08-21T06:29:03.193Z,994.54
2018-08-21T06:30:03.203Z,994.55
2018-08-21T06:31:03.202Z,994.52
2018-08-21T06:32:03.301Z,994.54
2018-08-21T06:33:03.212Z,994.54
2018-08-21T06:34:03.215Z,994.5
2018-08-21T06:35:03.229Z,994.47
2018-08-21T06:36:03.272Z,994.51
2018-08-21T06:37:03.236Z,994.53
2018-08-21T06:38:03.244Z,994.48
2018-08-21T06:39:03.249Z,994.52
2018-08-21T06:40:03.255Z,994.46
2018-08-21T06:41:03.279Z,994.51
2018-08-21T06:42:03.270Z,994.53
2018-08-21T06:43:03.280Z,994.47
2018-08-21T06:44:03.282Z,994.53
2018-08-21T06:45:03.289Z,994.48
2018-08-21T06:46:03.292Z,994.45
2018-08-21T06:47:03.299Z,994.47
2018-08-21T06:48:03.309Z,994.54
2018-08-21T06:49:03.315Z,994.47
2018-08-21T06:50:03.320Z,994.43
2018-08-21T06:51:03.331Z,994.44
2018-08-21T06:52:03.331Z,994.41
2018-08-21T06:53:03.407Z,994.42
2018-08-21T06:54:03.354Z,994.42
2018-08-21T06:55:03.354Z,994.44
2018-08-21T06:56:03.359Z,994.42
2018-08-21T06:57:03.377Z,994.45
2018-08-21T06:58:03.378Z,994.49
2018-08-21T06:59:03.389Z,994.49
2018-08-21T07:00:03.395Z,994.49
2018-08-21T07:01:03.401Z,994.47
2018-08-21T07:02:03.405Z,994.47
2018-08-21T07:03:03.410Z,994.5
2018-08-21T07:04:03.430Z,994.43
2018-08-21T07:05:03.425Z,994.45
2018-08-21T07:06:03.441Z,994.45
2018-08-21T07:07:03.447Z,994.49
2018-08-21T07:08:03.459Z,994.49
2018-08-21T07:09:03.465Z,994.49
2018-08-21T07:10:03.465Z,994.5
2018-08-21T07:11:03.471Z,994.49
2018-08-21T07:12:03.479Z,994.53
2018-08-21T07:13:03.486Z,994.53
2018-08-21T07:14:03.492Z,994.51
2018-08-21T07:15:03.512Z,994.53
2018-08-21T07:16:03.507Z,994.5
2018-08-21T07:17:03.516Z,994.49
2018-08-21T07:18:03.524Z,994.53
2018-08-21T07:19:03.528Z,994.5
2018-08-21T07:20:03.539Z,994.53
2018-08-21T07:21:03.553Z,994.57
2018-08-21T07:22:03.548Z,994.6
2018-08-21T07:23:03.554Z,994.6
2018-08-21T07:24:03.562Z,994.61
2018-08-21T07:25:03.566Z,994.63
2018-08-21T07:26:03.574Z,994.64
2018-08-21T07:27:03.579Z,994.67
2018-08-21T07:28:03.635Z,994.65
2018-08-21T07:29:03.636Z,994.63
2018-08-21T07:30:03.603Z,994.62
2018-08-21T07:31:03.603Z,994.64
2018-08-21T07:32:03.608Z,994.65
2018-08-21T07:33:03.616Z,994.67
2018-08-21T07:34:03.623Z,994.71
2018-08-21T07:35:03.627Z,994.69
2018-08-21T07:36:03.634Z,994.69
2018-08-21T07:37:03.638Z,994.65
2018-08-21T07:38:03.646Z,994.65
2018-08-21T07:39:03.648Z,994.68
2018-08-21T07:40:03.654Z,994.68
2018-08-21T07:41:03.659Z,994.69
2018-08-21T07:42:03.666Z,994.67
2018-08-21T07:43:03.671Z,994.68
2018-08-21T07:44:03.680Z,994.64
2018-08-21T07:45:03.732Z,994.64
2018-08-21T07:46:03.690Z,994.66
2018-08-21T07:47:03.707Z,994.64
2018-08-21T07:48:03.698Z,994.67
2018-08-21T07:49:03.703Z,994.66
2018-08-21T07:50:03.718Z,994.64
2018-08-21T07:51:03.964Z,994.66
2018-08-21T07:52:03.720Z,994.66
2018-08-21T07:53:03.724Z,994.67
2018-08-21T07:54:03.734Z,994.68
2018-08-21T07:55:03.755Z,994.65
2018-08-21T07:56:03.742Z,994.67
2018-08-21T07:57:03.746Z,994.65
2018-08-21T07:58:03.810Z,994.65
2018-08-21T07:59:03.759Z,994.66
2018-08-21T08:00:03.768Z,994.63
2018-08-21T08:01:03.769Z,994.73
2018-08-21T08:02:03.781Z,994.63
2018-08-21T08:03:03.783Z,994.65
2018-08-21T08:04:03.881Z,994.62
2018-08-21T08:05:03.787Z,994.59
2018-08-21T08:06:03.796Z,994.56
2018-08-21T08:07:03.803Z,994.54
2018-08-21T08:08:03.818Z,994.54
2018-08-21T08:09:03.813Z,994.5
2018-08-21T08:10:03.815Z,994.54
2018-08-21T08:11:03.820Z,994.58
2018-08-21T08:12:03.827Z,994.59
2018-08-21T08:13:03.835Z,994.57
2018-08-21T08:14:04.000Z,994.6
2018-08-21T08:15:03.843Z,994.62
2018-08-21T08:16:03.870Z,994.63
2018-08-21T08:17:03.852Z,994.6
2018-08-21T08:18:03.861Z,994.61
2018-08-21T08:19:03.927Z,994.62
2018-08-21T08:20:03.923Z,994.65
2018-08-21T08:21:04.925Z,994.61
2018-08-21T08:22:03.886Z,994.71
2018-08-21T08:23:03.906Z,994.7
2018-08-21T08:24:03.893Z,994.69
2018-08-21T08:25:03.898Z,994.7
2018-08-21T08:26:03.908Z,994.7
2018-08-21T08:27:03.910Z,994.69
2018-08-21T08:28:03.913Z,994.68
2018-08-21T08:29:03.960Z,994.65
2018-08-21T08:30:03.940Z,994.69
2018-08-21T08:31:03.931Z,994.67
2018-08-21T08:32:03.938Z,994.61
2018-08-21T08:33:03.942Z,994.67
2018-08-21T08:34:03.960Z,994.69
2018-08-21T08:35:03.962Z,994.68
2018-08-21T08:36:03.984Z,994.68
2018-08-21T08:37:03.975Z,994.66
2018-08-21T08:38:03.973Z,994.66
2018-08-21T08:39:03.981Z,994.68
2018-08-21T08:40:03.985Z,994.64
2018-08-21T08:41:03.994Z,994.63
2018-08-21T08:42:04.109Z,994.6
2018-08-21T08:43:04.004Z,994.65
2018-08-21T08:44:04.022Z,994.58
2018-08-21T08:45:04.029Z,994.59
2018-08-21T08:46:04.026Z,994.55
2018-08-21T08:47:04.031Z,994.46
2018-08-21T08:48:04.035Z,994.48
2018-08-21T08:49:04.041Z,994.47
2018-08-21T08:50:04.050Z,994.42
2018-08-21T08:51:04.055Z,994.45
2018-08-21T08:52:04.060Z,994.45
2018-08-21T08:53:04.068Z,994.42
2018-08-21T08:54:04.076Z,994.43
2018-08-21T08:55:04.086Z,994.43
2018-08-21T08:56:04.087Z,994.4
2018-08-21T08:57:04.099Z,994.36
2018-08-21T08:58:04.098Z,994.39
2018-08-21T08:59:04.107Z,994.39
2018-08-21T09:00:04.109Z,994.31
2018-08-21T09:01:04.122Z,994.33
2018-08-21T09:02:04.138Z,994.27
2018-08-21T09:03:04.140Z,994.26
2018-08-21T09:04:04.134Z,994.26
2018-08-21T09:05:04.288Z,994.25
2018-08-21T09:06:04.150Z,994.23
2018-08-21T09:07:04.152Z,994.27
2018-08-21T09:08:04.157Z,994.27
2018-08-21T09:09:04.165Z,994.26
2018-08-21T09:10:04.170Z,994.28
2018-08-21T09:11:04.174Z,994.32
2018-08-21T09:12:04.188Z,994.25
2018-08-21T09:13:04.185Z,994.23
2018-08-21T09:14:04.192Z,994.26
2018-08-21T09:15:04.197Z,994.22
2018-08-21T09:16:04.203Z,994.2
2018-08-21T09:17:04.210Z,994.21
2018-08-21T09:18:04.236Z,994.21
2018-08-21T09:19:04.218Z,994.23
2018-08-21T09:20:04.242Z,994.18
2018-08-21T09:21:04.229Z,994.16
2018-08-21T09:22:04.241Z,994.15
2018-08-21T09:23:04.240Z,994.15
2018-08-21T09:24:04.246Z,994.16
2018-08-21T09:25:04.254Z,994.12
2018-08-21T09:26:04.259Z,994.12
2018-08-21T09:27:04.267Z,994.09
2018-08-21T09:28:04.268Z,994.12
2018-08-21T09:29:04.274Z,994.09
2018-08-21T09:30:04.280Z,994.04
2018-08-21T09:31:04.294Z,994.06
2018-08-21T09:32:04.302Z,994.04
2018-08-21T09:33:04.296Z,994.04
2018-08-21T09:34:04.300Z,994.01
2018-08-21T09:35:04.307Z,994.04
2018-08-21T09:36:04.313Z,994.03
2018-08-21T09:37:04.319Z,994.03
2018-08-21T09:38:04.372Z,993.98
2018-08-21T09:39:04.330Z,993.95
2018-08-21T09:40:04.333Z,993.98
2018-08-21T09:41:04.339Z,993.98
2018-08-21T09:42:04.352Z,993.97
2018-08-21T09:43:04.357Z,993.95
2018-08-21T09:44:04.366Z,993.96
2018-08-21T09:45:04.363Z,993.98
2018-08-21T09:46:04.367Z,993.98
2018-08-21T09:47:04.377Z,993.97
2018-08-21T09:48:04.378Z,994
2018-08-21T09:49:04.391Z,993.93
2018-08-21T09:50:04.406Z,993.88
2018-08-21T09:51:04.396Z,993.87
2018-08-21T09:52:04.398Z,993.89
2018-08-21T09:53:04.411Z,993.89
2018-08-21T09:54:04.410Z,993.89
2018-08-21T09:55:04.426Z,993.88
2018-08-21T09:56:04.421Z,993.87
2018-08-21T09:57:04.424Z,993.87
2018-08-21T09:58:04.430Z,993.83
2018-08-21T09:59:04.441Z,993.88
2018-08-21T10:00:04.441Z,993.83
2018-08-21T10:01:04.452Z,993.84
2018-08-21T10:02:04.459Z,993.83
2018-08-21T10:03:04.458Z,993.79
2018-08-21T10:04:04.469Z,993.83
2018-08-21T10:05:04.476Z,993.83
2018-08-21T10:06:04.475Z,993.82
2018-08-21T10:07:04.485Z,993.84
2018-08-21T10:08:04.483Z,993.83
2018-08-21T10:09:04.489Z,993.79
2018-08-21T10:10:04.493Z,993.75
2018-08-21T10:11:04.500Z,993.76
2018-08-21T10:12:04.504Z,993.79
2018-08-21T10:13:04.507Z,993.73
2018-08-21T10:14:04.516Z,993.74
2018-08-21T10:15:04.519Z,993.73
2018-08-21T10:16:04.539Z,993.68
2018-08-21T10:17:04.535Z,993.62
2018-08-21T10:18:04.539Z,993.61
2018-08-21T10:19:04.549Z,993.61
2018-08-21T10:20:04.550Z,993.58
2018-08-21T10:21:04.557Z,993.58
2018-08-21T10:22:04.563Z,993.6
2018-08-21T10:23:04.567Z,993.58
2018-08-21T10:24:04.573Z,993.57
2018-08-21T10:25:04.576Z,993.58
2018-08-21T10:26:04.580Z,993.51
2018-08-21T10:27:04.590Z,993.62
2018-08-21T10:28:04.596Z,993.56
2018-08-21T10:29:04.601Z,993.53
2018-08-21T10:30:04.605Z,993.58
2018-08-21T10:31:04.610Z,993.56
2018-08-21T10:32:04.648Z,993.57
2018-08-21T10:33:04.624Z,993.59
2018-08-21T10:34:04.628Z,993.65
2018-08-21T10:35:04.694Z,993.58
2018-08-21T10:36:04.638Z,993.57
2018-08-21T10:37:04.643Z,993.58
2018-08-21T10:38:04.656Z,993.55
2018-08-21T10:39:04.655Z,993.54
2018-08-21T10:40:04.660Z,993.51
2018-08-21T10:41:04.672Z,993.53
2018-08-21T10:42:04.675Z,993.53
2018-08-21T10:43:04.689Z,993.48
2018-08-21T10:44:04.688Z,993.5
2018-08-21T10:45:04.691Z,993.44
2018-08-21T10:46:04.699Z,993.48
2018-08-21T10:47:04.701Z,993.46
2018-08-21T10:48:04.704Z,993.46
2018-08-21T10:49:04.715Z,993.47
2018-08-21T10:50:04.739Z,993.47
2018-08-21T10:51:04.718Z,993.46
2018-08-21T10:52:04.974Z,993.49
2018-08-21T10:53:04.728Z,993.51
2018-08-21T10:54:04.735Z,993.55
2018-08-21T10:55:04.753Z,993.56
2018-08-21T10:56:04.754Z,993.5
2018-08-21T10:57:04.753Z,993.46
2018-08-21T10:58:04.755Z,993.46
2018-08-21T10:59:04.761Z,993.48
2018-08-21T11:00:04.768Z,993.43
2018-08-21T11:01:04.774Z,993.46
2018-08-21T11:02:04.814Z,993.45
2018-08-21T11:03:04.799Z,993.39
2018-08-21T11:04:04.800Z,993.4
2018-08-21T11:05:04.799Z,993.43
2018-08-21T11:06:04.802Z,993.43
2018-08-21T11:07:04.806Z,993.45
2018-08-21T11:08:04.818Z,993.43
2018-08-21T11:09:04.818Z,993.39
2018-08-21T11:10:04.824Z,993.42
2018-08-21T11:11:04.830Z,993.42
2018-08-21T11:12:04.836Z,993.38
2018-08-21T11:13:04.838Z,993.39
2018-08-21T11:14:04.844Z,993.32
2018-08-21T11:15:04.856Z,993.32
2018-08-21T11:16:04.858Z,993.33
2018-08-21T11:17:04.869Z,993.34
2018-08-21T11:18:04.900Z,993.26
2018-08-21T11:19:04.872Z,993.23
2018-08-21T11:20:04.879Z,993.25
2018-08-21T11:21:04.890Z,993.23
2018-08-21T11:22:05.041Z,993.28
2018-08-21T11:23:04.895Z,993.3
2018-08-21T11:24:04.962Z,993.28
2018-08-21T11:25:04.909Z,993.29
2018-08-21T11:26:04.913Z,993.24
2018-08-21T11:27:04.925Z,993.24
2018-08-21T11:28:04.926Z,993.22
2018-08-21T11:29:04.931Z,993.21
2018-08-21T11:30:04.946Z,993.2
2018-08-21T11:31:04.954Z,993.24
2018-08-21T11:32:04.952Z,993.27
2018-08-21T11:33:04.961Z,993.24
2018-08-21T11:34:04.961Z,993.21
2018-08-21T11:35:04.968Z,993.19
2018-08-21T11:36:04.970Z,993.2
2018-08-21T11:37:04.979Z,993.15
2018-08-21T11:38:05.167Z,993.17
2018-08-21T11:39:04.992Z,993.1
2018-08-21T11:40:04.997Z,993.14
2018-08-21T11:41:05.003Z,993.13
2018-08-21T11:42:05.014Z,993.1
2018-08-21T11:43:05.034Z,993.08
2018-08-21T11:44:05.017Z,993.07
2018-08-21T11:45:05.032Z,993.05
2018-08-21T11:46:05.031Z,993.05
2018-08-21T11:47:05.037Z,993.04
2018-08-21T11:48:05.073Z,993.05
2018-08-21T11:49:05.049Z,992.99
2018-08-21T11:50:05.064Z,992.96
2018-08-21T11:51:05.061Z,992.93
2018-08-21T11:52:06.669Z,992.91
2018-08-21T11:53:05.094Z,992.92
2018-08-21T11:54:05.081Z,992.87
2018-08-21T11:55:05.091Z,992.86
2018-08-21T11:56:05.093Z,992.87
2018-08-21T11:57:05.119Z,992.88
2018-08-21T11:58:05.104Z,992.88
2018-08-21T11:59:05.109Z,992.9
2018-08-21T12:00:05.116Z,992.93
2018-08-21T12:01:05.123Z,992.89
2018-08-21T12:02:05.140Z,992.91
2018-08-21T12:03:05.134Z,992.9
2018-08-21T12:04:05.151Z,992.87
2018-08-21T12:05:05.148Z,992.87
2018-08-21T12:06:05.153Z,992.86
2018-08-21T12:07:05.158Z,992.86
2018-08-21T12:08:05.168Z,992.88
2018-08-21T12:09:05.276Z,992.84
2018-08-21T12:10:05.177Z,992.83
2018-08-21T12:11:05.183Z,992.81
2018-08-21T12:12:05.188Z,992.8
2018-08-21T12:13:05.196Z,992.79
2018-08-21T12:14:05.199Z,992.8
2018-08-21T12:15:05.206Z,992.77
2018-08-21T12:16:05.210Z,992.76
2018-08-21T12:17:05.215Z,992.74
2018-08-21T12:18:05.221Z,992.74
2018-08-21T12:19:05.227Z,992.73
2018-08-21T12:20:05.233Z,992.69
2018-08-21T12:21:05.240Z,992.66
2018-08-21T12:22:05.248Z,992.67
2018-08-21T12:23:05.249Z,992.66
2018-08-21T12:24:05.254Z,992.67
2018-08-21T12:25:05.266Z,992.64
2018-08-21T12:26:05.272Z,992.65
2018-08-21T12:27:05.273Z,992.61
2018-08-21T12:28:05.277Z,992.58
2018-08-21T12:29:05.287Z,992.57
2018-08-21T12:30:05.370Z,992.56
2018-08-21T12:31:05.294Z,992.53
2018-08-21T12:32:05.302Z,992.53
2018-08-21T12:33:05.311Z,992.47
2018-08-21T12:34:05.374Z,992.47
2018-08-21T12:35:05.318Z,992.54
2018-08-21T12:36:05.328Z,992.5
2018-08-21T12:37:05.339Z,992.48
2018-08-21T12:38:05.348Z,992.45
2018-08-21T12:39:05.349Z,992.5
2018-08-21T12:40:05.349Z,992.47
2018-08-21T12:41:05.351Z,992.48
2018-08-21T12:42:05.358Z,992.45
2018-08-21T12:43:05.363Z,992.46
2018-08-21T12:44:05.375Z,992.46
2018-08-21T12:45:05.379Z,992.4
2018-08-21T12:46:05.383Z,992.42
2018-08-21T12:47:05.385Z,992.39
2018-08-21T12:48:05.390Z,992.36
2018-08-21T12:49:05.404Z,992.31
2018-08-21T12:50:05.411Z,992.23
2018-08-21T12:51:05.413Z,992.16
2018-08-21T12:52:05.426Z,992.25
2018-08-21T12:53:05.433Z,992.27
2018-08-21T12:54:05.428Z,992.2
2018-08-21T12:55:05.438Z,992.25
2018-08-21T12:56:05.443Z,992.22
2018-08-21T12:57:05.443Z,992.22
2018-08-21T12:58:05.453Z,992.27
2018-08-21T12:59:05.456Z,992.24
2018-08-21T13:00:05.475Z,992.2
2018-08-21T13:01:05.481Z,992.2
2018-08-21T13:02:05.476Z,992.22
2018-08-21T13:03:05.488Z,992.15
2018-08-21T13:04:05.593Z,992.19
2018-08-21T13:05:05.498Z,992.16
2018-08-21T13:06:05.501Z,992.13
2018-08-21T13:07:05.504Z,992.16
2018-08-21T13:08:05.507Z,992.18
2018-08-21T13:09:05.513Z,992.11
2018-08-21T13:10:05.519Z,992.13
2018-08-21T13:11:05.527Z,992.08
2018-08-21T13:12:05.542Z,992.11
2018-08-21T13:13:05.549Z,992.04
2018-08-21T13:14:05.542Z,992.05
2018-08-21T13:15:05.553Z,992.03
2018-08-21T13:16:05.551Z,992.04
2018-08-21T13:17:05.557Z,992.03
2018-08-21T13:18:05.564Z,992.09
2018-08-21T13:19:05.574Z,992.04
2018-08-21T13:20:05.574Z,992.06
2018-08-21T13:21:05.581Z,992.03
2018-08-21T13:22:05.589Z,991.99
2018-08-21T13:23:05.591Z,991.98
2018-08-21T13:24:05.601Z,992.01
2018-08-21T13:25:05.608Z,992
2018-08-21T13:26:05.607Z,991.95
2018-08-21T13:27:05.613Z,991.95
2018-08-21T13:28:05.619Z,991.96
2018-08-21T13:29:05.633Z,991.99
2018-08-21T13:30:05.637Z,991.97
2018-08-21T13:31:05.645Z,991.91
2018-08-21T13:32:05.643Z,991.89
2018-08-21T13:33:05.645Z,991.9
2018-08-21T13:34:05.661Z,991.88
2018-08-21T13:35:05.660Z,991.84
2018-08-21T13:36:05.686Z,991.91
2018-08-21T13:37:05.780Z,991.9
2018-08-21T13:38:05.674Z,991.87
2018-08-21T13:39:05.683Z,991.86
2018-08-21T13:40:05.688Z,991.83
2018-08-21T13:41:05.700Z,991.79
2018-08-21T13:42:05.699Z,991.83
2018-08-21T13:43:05.701Z,991.77
2018-08-21T13:44:05.745Z,991.76
2018-08-21T13:45:05.719Z,991.78
2018-08-21T13:46:05.723Z,991.77
2018-08-21T13:47:05.725Z,991.71
2018-08-21T13:48:05.736Z,991.74
2018-08-21T13:49:05.749Z,991.78
2018-08-21T13:50:05.745Z,991.78
2018-08-21T13:51:05.746Z,991.76
2018-08-21T13:52:05.751Z,991.79
2018-08-21T13:53:05.761Z,991.8
2018-08-21T13:54:05.769Z,991.81
2018-08-21T13:55:05.768Z,991.75
2018-08-21T13:56:05.773Z,991.77
2018-08-21T13:57:05.791Z,991.71
2018-08-21T13:58:05.787Z,991.66
2018-08-21T13:59:05.817Z,991.67
2018-08-21T14:00:05.814Z,991.61
2018-08-21T14:01:05.802Z,991.6
2018-08-21T14:02:05.857Z,991.65
2018-08-21T14:03:05.818Z,991.58
2018-08-21T14:04:05.832Z,991.66
2018-08-21T14:05:05.834Z,991.68
2018-08-21T14:06:05.833Z,991.67
2018-08-21T14:07:05.839Z,991.67
2018-08-21T14:08:05.842Z,991.64
2018-08-21T14:09:05.865Z,991.66
2018-08-21T14:10:05.868Z,991.67
2018-08-21T14:11:05.893Z,991.64
2018-08-21T14:12:05.867Z,991.67
2018-08-21T14:13:05.923Z,991.67
2018-08-21T14:14:05.883Z,991.63
2018-08-21T14:15:05.885Z,991.59
2018-08-21T14:16:05.892Z,991.61
2018-08-21T14:17:05.898Z,991.6
2018-08-21T14:18:05.900Z,991.62
2018-08-21T14:19:05.923Z,991.6
2018-08-21T14:20:05.929Z,991.58
2018-08-21T14:21:05.930Z,991.58
2018-08-21T14:22:05.939Z,991.52
2018-08-21T14:23:06.002Z,991.58
2018-08-21T14:24:05.936Z,991.59
2018-08-21T14:25:05.938Z,991.58
2018-08-21T14:26:05.945Z,991.56
2018-08-21T14:27:05.954Z,991.56
2018-08-21T14:28:06.020Z,991.56
2018-08-21T14:29:05.979Z,991.55
2018-08-21T14:30:05.975Z,991.5
2018-08-21T14:31:05.980Z,991.49
2018-08-21T14:32:05.979Z,991.5
2018-08-21T14:33:05.983Z,991.49
2018-08-21T14:34:05.995Z,991.51
2018-08-21T14:35:06.005Z,991.49
2018-08-21T14:36:06.002Z,991.49
2018-08-21T14:37:06.007Z,991.5
2018-08-21T14:38:06.017Z,991.46
2018-08-21T14:39:06.113Z,991.47
2018-08-21T14:40:06.027Z,991.48
2018-08-21T14:41:06.031Z,991.48
2018-08-21T14:42:06.042Z,991.47
2018-08-21T14:43:06.040Z,991.49
2018-08-21T14:44:06.048Z,991.49
2018-08-21T14:45:06.069Z,991.4
2018-08-21T14:46:06.080Z,991.42
2018-08-21T14:47:06.064Z,991.41
2018-08-21T14:48:06.074Z,991.42
2018-08-21T14:49:06.097Z,991.37
2018-08-21T14:50:06.126Z,991.33
2018-08-21T14:51:06.121Z,991.34
2018-08-21T14:52:06.094Z,991.33
2018-08-21T14:53:06.257Z,991.33
2018-08-21T14:54:06.129Z,991.34
2018-08-21T14:55:06.112Z,991.3
2018-08-21T14:56:06.127Z,991.33
2018-08-21T14:57:06.124Z,991.36
2018-08-21T14:58:06.157Z,991.37
2018-08-21T14:59:06.136Z,991.3
2018-08-21T15:00:06.147Z,991.32
2018-08-21T15:01:06.179Z,991.31
2018-08-21T15:02:06.195Z,991.33
2018-08-21T15:03:06.164Z,991.3
2018-08-21T15:04:06.171Z,991.27
2018-08-21T15:05:06.168Z,991.27
2018-08-21T15:06:06.172Z,991.28
2018-08-21T15:07:06.192Z,991.27
2018-08-21T15:08:06.196Z,991.28
2018-08-21T15:09:06.190Z,991.22
2018-08-21T15:10:06.231Z,991.25
2018-08-21T15:11:06.213Z,991.2
2018-08-21T15:12:06.215Z,991.22
2018-08-21T15:13:06.219Z,991.21
2018-08-21T15:14:06.225Z,991.17
2018-08-21T15:15:06.229Z,991.14
2018-08-21T15:16:06.228Z,991.16
2018-08-21T15:17:06.236Z,991.14
2018-08-21T15:18:06.240Z,991.11
2018-08-21T15:19:06.257Z,991.08
2018-08-21T15:20:06.252Z,991.12
2018-08-21T15:21:06.256Z,991.04
2018-08-21T15:22:06.268Z,991.07
2018-08-21T15:23:07.079Z,991.02
2018-08-21T15:24:06.285Z,991.06
2018-08-21T15:25:06.279Z,991.04
2018-08-21T15:26:06.287Z,991.02
2018-08-21T15:27:06.292Z,991.04
2018-08-21T15:28:06.298Z,991.01
2018-08-21T15:29:06.332Z,991.01
2018-08-21T15:30:06.312Z,991.04
2018-08-21T15:31:06.311Z,991.02
2018-08-21T15:32:06.319Z,991.04
2018-08-21T15:33:06.340Z,991.05
2018-08-21T15:34:06.345Z,990.99
2018-08-21T15:35:06.342Z,990.96
2018-08-21T15:36:06.342Z,990.94
2018-08-21T15:37:06.376Z,990.92
2018-08-21T15:38:06.370Z,990.9
2018-08-21T15:39:06.427Z,990.92
2018-08-21T15:40:06.465Z,990.92
2018-08-21T15:41:06.378Z,990.87
2018-08-21T15:42:06.374Z,990.89
2018-08-21T15:43:06.380Z,990.9
2018-08-21T15:44:06.449Z,990.85
2018-08-21T15:45:06.395Z,990.86
2018-08-21T15:46:06.406Z,990.89
2018-08-21T15:47:06.413Z,990.84
2018-08-21T15:48:06.408Z,990.82
2018-08-21T15:49:06.437Z,990.86
2018-08-21T15:50:06.535Z,990.84
2018-08-21T15:51:06.441Z,990.84
2018-08-21T15:52:06.432Z,990.88
2018-08-21T15:53:06.447Z,990.83
2018-08-21T15:54:06.471Z,990.85
2018-08-21T15:55:06.446Z,990.84
2018-08-21T15:56:06.451Z,990.81
2018-08-21T15:57:06.457Z,990.84
2018-08-21T15:58:06.464Z,990.81
2018-08-21T15:59:06.476Z,990.82
2018-08-21T16:00:06.484Z,990.83
2018-08-21T16:01:06.478Z,990.85
2018-08-21T16:02:06.492Z,990.79
2018-08-21T16:03:06.490Z,990.82
2018-08-21T16:04:06.513Z,990.83
2018-08-21T16:05:06.503Z,990.8
2018-08-21T16:06:06.507Z,990.83
2018-08-21T16:07:06.515Z,990.82
2018-08-21T16:08:06.539Z,990.79
2018-08-21T16:09:06.547Z,990.79
2018-08-21T16:10:06.533Z,990.8
2018-08-21T16:11:06.548Z,990.77
2018-08-21T16:12:06.539Z,990.79
2018-08-21T16:13:06.548Z,990.79
2018-08-21T16:14:06.581Z,990.76
2018-08-21T16:15:06.560Z,990.75
2018-08-21T16:16:06.560Z,990.76
2018-08-21T16:17:06.577Z,990.72
2018-08-21T16:18:06.573Z,990.71
2018-08-21T16:19:06.631Z,990.74
2018-08-21T16:20:06.589Z,990.73
2018-08-21T16:21:06.589Z,990.7
2018-08-21T16:22:06.596Z,990.73
2018-08-21T16:23:06.620Z,990.76
2018-08-21T16:24:06.625Z,990.76
2018-08-21T16:25:06.635Z,990.76
2018-08-21T16:26:06.615Z,990.73
2018-08-21T16:27:06.643Z,990.75
2018-08-21T16:28:06.631Z,990.76
2018-08-21T16:29:06.640Z,990.77
2018-08-21T16:30:06.641Z,990.74
2018-08-21T16:31:06.644Z,990.74
2018-08-21T16:32:06.683Z,990.75
2018-08-21T16:33:06.733Z,990.72
2018-08-21T16:34:06.666Z,990.75
2018-08-21T16:35:06.671Z,990.75
2018-08-21T16:36:06.678Z,990.76
2018-08-21T16:37:06.680Z,990.72
2018-08-21T16:38:06.685Z,990.71
2018-08-21T16:39:07.090Z,990.7
2018-08-21T16:40:07.023Z,990.7
2018-08-21T16:41:06.697Z,990.73
2018-08-21T16:42:06.725Z,990.69
2018-08-21T16:43:06.708Z,990.71
2018-08-21T16:44:06.732Z,990.72
2018-08-21T16:45:06.729Z,990.73
2018-08-21T16:46:06.762Z,990.69
2018-08-21T16:47:06.729Z,990.7
2018-08-21T16:48:06.754Z,990.68
2018-08-21T16:49:06.746Z,990.71
2018-08-21T16:50:06.757Z,990.65
2018-08-21T16:51:06.754Z,990.66
2018-08-21T16:52:06.771Z,990.63
2018-08-21T16:53:06.775Z,990.68
2018-08-21T16:54:06.810Z,990.63
2018-08-21T16:55:06.783Z,990.65
2018-08-21T16:56:06.778Z,990.66
2018-08-21T16:57:06.803Z,990.68
2018-08-21T16:58:06.793Z,990.66
2018-08-21T16:59:06.802Z,990.64
2018-08-21T17:00:06.800Z,990.67
2018-08-21T17:01:06.891Z,990.61
2018-08-21T17:02:06.811Z,990.66
2018-08-21T17:03:06.814Z,990.68
2018-08-21T17:04:06.823Z,990.65
2018-08-21T17:05:06.830Z,990.68
2018-08-21T17:06:06.828Z,990.7
2018-08-21T17:07:06.840Z,990.68
2018-08-21T17:08:06.845Z,990.72
2018-08-21T17:09:07.654Z,990.72
2018-08-21T17:10:06.899Z,990.73
2018-08-21T17:11:06.876Z,990.71
2018-08-21T17:12:06.902Z,990.72
2018-08-21T17:13:06.868Z,990.72
2018-08-21T17:14:06.873Z,990.72
2018-08-21T17:15:06.882Z,990.7
2018-08-21T17:16:06.885Z,990.76
2018-08-21T17:17:06.904Z,990.75
2018-08-21T17:18:06.896Z,990.75
2018-08-21T17:19:06.901Z,990.73
2018-08-21T17:20:06.944Z,990.72
2018-08-21T17:21:06.913Z,990.72
2018-08-21T17:22:06.914Z,990.68
2018-08-21T17:23:06.924Z,990.68
2018-08-21T17:24:06.923Z,990.7
2018-08-21T17:25:06.932Z,990.67
2018-08-21T17:26:06.935Z,990.69
2018-08-21T17:27:06.942Z,990.7
2018-08-21T17:28:06.945Z,990.68
2018-08-21T17:29:06.952Z,990.67
2018-08-21T17:30:06.956Z,990.67
2018-08-21T17:31:06.969Z,990.7
2018-08-21T17:32:06.962Z,990.71
2018-08-21T17:33:06.970Z,990.77
2018-08-21T17:34:06.976Z,990.81
2018-08-21T17:35:07.006Z,990.8
2018-08-21T17:36:06.985Z,990.8
2018-08-21T17:37:06.992Z,990.84
2018-08-21T17:38:06.998Z,990.83
2018-08-21T17:39:07.003Z,990.88
2018-08-21T17:40:07.028Z,990.85
2018-08-21T17:41:07.008Z,990.86
2018-08-21T17:42:07.019Z,990.84
2018-08-21T17:43:07.027Z,990.82
2018-08-21T17:44:07.037Z,990.83
2018-08-21T17:45:07.034Z,990.84
2018-08-21T17:46:07.037Z,990.84
2018-08-21T17:47:07.040Z,990.84
2018-08-21T17:48:07.045Z,990.9
2018-08-21T17:49:07.053Z,990.86
2018-08-21T17:50:07.059Z,990.88
2018-08-21T17:51:07.059Z,990.92
2018-08-21T17:52:07.067Z,990.89
2018-08-21T17:53:07.070Z,990.9
2018-08-21T17:54:07.075Z,990.97
2018-08-21T17:55:07.082Z,990.97
2018-08-21T17:56:07.086Z,990.96
2018-08-21T17:57:07.091Z,991.02
2018-08-21T17:58:07.099Z,991.03
2018-08-21T17:59:07.101Z,991.03
2018-08-21T18:00:07.109Z,990.99
2018-08-21T18:01:07.111Z,991.02
2018-08-21T18:02:07.120Z,991.01
2018-08-21T18:03:07.120Z,991.02
2018-08-21T18:04:07.127Z,991
2018-08-21T18:05:07.133Z,991
2018-08-21T18:06:07.135Z,990.99
2018-08-21T18:07:07.141Z,990.99
2018-08-21T18:08:07.148Z,991.03
2018-08-21T18:17:39.745Z,991.02
2018-08-21T18:18:39.695Z,991.04
2018-08-21T18:19:39.692Z,991.07
2018-08-21T18:20:39.694Z,991.1
2018-08-21T18:21:39.711Z,991.13
2018-08-21T18:22:39.703Z,991.07
2018-08-21T18:23:39.706Z,991.09
2018-08-21T18:24:39.712Z,991.09
2018-08-21T18:25:39.713Z,991.11
2018-08-21T18:26:39.724Z,991.11
2018-08-21T18:27:39.723Z,991.08
2018-08-21T18:28:39.723Z,991.1
2018-08-21T18:29:39.744Z,991.1